createdAt,value
2019-03-03T00:01:12.436Z,74.20
2019-03-03T00:03:42.082Z,74.10
2019-03-03T00:06:11.641Z,73.90
2019-03-03T00:08:41.254Z,74.30
2019-03-03T00:11:10.838Z,74.40
2019-03-03T00:13:40.442Z,74.00
2019-03-03T00:16:10.035Z,74.10
2019-03-03T00:18:39.646Z,74.20
2019-03-03T00:21:09.234Z,73.60
2019-03-03T00:23:38.839Z,73.70
2019-03-03T00:26:08.427Z,73.40
2019-03-03T00:28:38.090Z,73.70
2019-03-03T00:31:07.699Z,73.90
2019-03-03T00:33:37.308Z,74.00
2019-03-03T00:36:06.899Z,73.80
2019-03-03T00:38:43.879Z,74.20
2019-03-03T00:41:31.067Z,74.60
2019-03-03T00:44:08.040Z,74.50
2019-03-03T00:46:39.267Z,74.60
2019-03-03T00:49:13.586Z,74.60
2019-03-03T00:51:44.810Z,74.40
2019-03-03T00:54:19.023Z,74.60
2019-03-03T00:56:53.186Z,74.30
2019-03-03T00:59:24.435Z,74.10
2019-03-03T01:01:55.662Z,74.90
2019-03-03T01:04:26.897Z,74.30
2019-03-03T01:06:58.134Z,74.40
2019-03-03T01:09:38.494Z,74.60
2019-03-03T01:12:26.160Z,74.90
2019-03-03T01:14:57.482Z,74.70
2019-03-03T01:17:44.865Z,75.10
2019-03-03T01:20:18.631Z,75.00
2019-03-03T01:22:52.831Z,75.00
2019-03-03T01:25:22.438Z,75.40
2019-03-03T01:27:52.023Z,75.20
2019-03-03T01:30:21.635Z,75.10
2019-03-03T01:32:51.316Z,75.40
2019-03-03T01:35:20.895Z,75.70
2019-03-03T01:37:50.491Z,75.60
2019-03-03T01:40:20.092Z,75.80
2019-03-03T01:42:51.392Z,75.90
2019-03-03T01:45:20.992Z,76.40
2019-03-03T01:47:50.579Z,76.30
2019-03-03T01:50:20.190Z,76.60
2019-03-03T01:52:49.786Z,77.10
2019-03-03T01:55:19.378Z,77.00
2019-03-03T01:57:48.970Z,77.10
2019-03-03T02:00:24.708Z,76.60
2019-03-03T02:02:55.453Z,76.40
2019-03-03T02:05:25.685Z,75.80
2019-03-03T02:07:55.346Z,75.70
2019-03-03T02:10:27.075Z,76.20
2019-03-03T02:12:56.734Z,76.40
2019-03-03T02:15:26.348Z,76.60
2019-03-03T02:17:56.023Z,76.50
2019-03-03T02:20:25.743Z,76.60
2019-03-03T02:22:55.286Z,76.70
2019-03-03T02:25:24.887Z,76.50
2019-03-03T02:27:54.475Z,77.00
2019-03-03T02:30:24.081Z,77.30
2019-03-03T02:32:53.657Z,77.40
2019-03-03T02:35:23.277Z,77.60
2019-03-03T02:37:52.885Z,77.10
2019-03-03T02:40:22.480Z,77.10
2019-03-03T02:42:52.075Z,77.70
2019-03-03T02:45:21.655Z,77.90
2019-03-03T02:47:51.269Z,77.90
2019-03-03T02:50:20.858Z,77.80
2019-03-03T02:52:50.447Z,77.60
2019-03-03T02:55:20.053Z,77.40
2019-03-03T02:57:49.671Z,77.50
2019-03-03T03:00:23.523Z,77.00
2019-03-03T03:02:54.760Z,76.80
2019-03-03T03:05:30.487Z,76.70
2019-03-03T03:08:04.670Z,77.00
2019-03-03T03:10:41.971Z,77.50
2019-03-03T03:13:15.660Z,77.40
2019-03-03T03:15:49.755Z,77.30
2019-03-03T03:18:33.005Z,76.60
2019-03-03T03:21:09.976Z,77.60
2019-03-03T03:23:41.279Z,78.10
2019-03-03T03:26:18.543Z,78.80
2019-03-03T03:29:06.303Z,78.20
2019-03-03T03:31:37.671Z,78.20
2019-03-03T03:34:08.891Z,78.00
2019-03-03T03:36:45.926Z,77.80
2019-03-03T03:39:22.651Z,77.60
2019-03-03T03:41:56.651Z,78.10
2019-03-03T03:44:27.896Z,78.10
2019-03-03T03:46:59.123Z,77.90
2019-03-03T03:49:33.283Z,77.70
2019-03-03T03:52:10.317Z,77.80
2019-03-03T03:54:50.463Z,77.20
2019-03-03T03:57:21.777Z,77.20
2019-03-03T03:59:58.987Z,77.60
2019-03-03T04:02:30.284Z,77.70
2019-03-03T04:05:18.300Z,77.80
2019-03-03T04:07:52.248Z,77.70
2019-03-03T04:10:23.506Z,77.50
2019-03-03T04:13:00.436Z,77.60
2019-03-03T04:15:34.081Z,77.90
2019-03-03T04:18:08.358Z,77.80
2019-03-03T04:20:42.761Z,78.30
2019-03-03T04:23:13.981Z,78.50
2019-03-03T04:25:54.177Z,78.50
2019-03-03T04:28:28.483Z,78.80
2019-03-03T04:31:02.439Z,78.70
2019-03-03T04:33:39.461Z,78.40
2019-03-03T04:36:26.868Z,78.40
2019-03-03T04:38:58.097Z,78.50
2019-03-03T04:41:38.427Z,78.30
2019-03-03T04:44:18.626Z,78.20
2019-03-03T04:46:52.842Z,78.50
2019-03-03T04:49:24.064Z,79.40
2019-03-03T04:52:01.181Z,79.60
2019-03-03T04:54:38.139Z,79.60
2019-03-03T04:57:09.377Z,79.10
2019-03-03T04:59:43.722Z,79.60
2019-03-03T05:02:31.148Z,79.20
2019-03-03T05:05:02.384Z,79.20
2019-03-03T05:07:36.322Z,79.30
2019-03-03T05:10:27.054Z,79.40
2019-03-03T05:12:58.277Z,79.50
2019-03-03T05:15:32.204Z,79.20
2019-03-03T05:18:03.443Z,79.20
2019-03-03T05:20:46.526Z,79.60
2019-03-03T05:23:16.123Z,79.60
2019-03-03T05:25:45.720Z,79.20
2019-03-03T05:28:15.359Z,79.50
2019-03-03T05:30:44.949Z,79.60
2019-03-03T05:33:14.551Z,79.70
2019-03-03T05:35:44.146Z,79.80
2019-03-03T05:38:13.761Z,80.20
2019-03-03T05:40:43.355Z,80.40
2019-03-03T05:43:12.955Z,80.50
2019-03-03T05:45:42.551Z,80.70
2019-03-03T05:48:12.165Z,80.90
2019-03-03T05:50:41.756Z,81.00
2019-03-03T05:53:11.369Z,81.10
2019-03-03T05:55:42.695Z,80.80
2019-03-03T05:58:12.305Z,80.90
2019-03-03T06:00:41.890Z,81.10
2019-03-03T06:03:11.502Z,81.40
2019-03-03T06:05:41.096Z,81.60
2019-03-03T06:08:10.705Z,82.10
2019-03-03T06:10:40.300Z,82.20
2019-03-03T06:13:09.909Z,82.60
2019-03-03T06:15:39.526Z,82.20
2019-03-03T06:18:09.105Z,82.10
2019-03-03T06:20:38.706Z,81.70
2019-03-03T06:23:08.306Z,81.90
2019-03-03T06:25:37.902Z,82.60
2019-03-03T06:28:07.530Z,83.60
2019-03-03T06:30:37.147Z,84.80
2019-03-03T06:33:06.964Z,85.10
2019-03-03T06:35:36.613Z,85.20
2019-03-03T06:38:06.236Z,85.70
2019-03-03T06:40:35.818Z,86.80
2019-03-03T06:43:05.455Z,87.50
2019-03-03T06:45:35.070Z,88.40
2019-03-03T06:48:04.728Z,88.80
2019-03-03T06:50:34.338Z,89.60
2019-03-03T06:53:03.947Z,89.90
2019-03-03T06:55:33.539Z,89.80
2019-03-03T06:58:03.148Z,89.80
2019-03-03T07:00:32.743Z,90.10
2019-03-03T07:03:02.343Z,90.30
2019-03-03T07:05:31.946Z,90.30
2019-03-03T07:08:01.555Z,90.00
2019-03-03T07:10:31.149Z,90.20
2019-03-03T07:13:00.832Z,90.10
2019-03-03T07:15:30.420Z,90.20
2019-03-03T07:18:00.018Z,90.50
2019-03-03T07:20:29.678Z,90.10
2019-03-03T07:22:59.310Z,90.00
2019-03-03T07:25:28.897Z,90.10
2019-03-03T07:27:58.540Z,90.10
2019-03-03T07:30:28.144Z,90.20
2019-03-03T07:33:05.263Z,90.00
2019-03-03T07:35:34.862Z,90.00
2019-03-03T07:38:04.595Z,90.10
2019-03-03T07:40:34.209Z,90.20
2019-03-03T07:43:03.810Z,90.20
2019-03-03T07:45:33.496Z,90.20
2019-03-03T07:48:03.095Z,90.30
2019-03-03T07:50:32.706Z,90.30
2019-03-03T07:53:02.323Z,90.30
2019-03-03T07:55:32.183Z,90.10
2019-03-03T07:58:01.779Z,90.10
2019-03-03T08:00:31.403Z,90.10
2019-03-03T08:03:01.072Z,90.20
2019-03-03T08:05:31.053Z,90.40
2019-03-03T08:08:00.675Z,90.10
2019-03-03T08:10:30.308Z,90.10
2019-03-03T08:13:08.896Z,90.10
2019-03-03T08:15:31.217Z,90.00
2019-03-03T08:18:00.883Z,90.20
2019-03-03T08:20:30.558Z,90.10
2019-03-03T08:23:00.161Z,90.00
2019-03-03T08:25:29.776Z,89.80
2019-03-03T08:27:59.418Z,89.80
2019-03-03T08:30:30.996Z,89.70
2019-03-03T08:33:00.497Z,89.60
2019-03-03T08:35:32.172Z,89.10
2019-03-03T08:38:01.819Z,90.00
2019-03-03T08:40:31.503Z,89.60
2019-03-03T08:43:04.131Z,89.30
2019-03-03T08:45:53.669Z,89.40
2019-03-03T08:48:30.465Z,89.50
2019-03-03T08:51:01.815Z,89.00
2019-03-03T08:53:49.115Z,89.60
2019-03-03T08:56:23.316Z,90.10
2019-03-03T08:59:10.728Z,89.20
2019-03-03T09:01:42.034Z,89.40
2019-03-03T09:04:29.647Z,90.00
2019-03-03T09:07:00.937Z,90.00
2019-03-03T09:09:48.638Z,90.20
2019-03-03T09:12:36.382Z,90.50
2019-03-03T09:15:13.167Z,90.50
2019-03-03T09:17:53.396Z,90.50
2019-03-03T09:20:41.127Z,90.90
2019-03-03T09:23:12.433Z,90.60
2019-03-03T09:25:46.750Z,90.60
2019-03-03T09:28:20.958Z,90.30
2019-03-03T09:30:55.198Z,90.50
2019-03-03T09:33:26.475Z,90.50
2019-03-03T09:36:14.316Z,90.40
2019-03-03T09:38:45.553Z,90.20
2019-03-03T09:41:19.438Z,90.20
2019-03-03T09:43:50.690Z,89.90
2019-03-03T09:46:24.456Z,89.60
2019-03-03T09:48:58.403Z,88.80
2019-03-03T09:51:35.386Z,88.80
2019-03-03T09:54:21.618Z,88.70
2019-03-03T09:56:52.874Z,87.70
2019-03-03T09:59:24.113Z,87.90
2019-03-03T10:02:01.145Z,87.80
2019-03-03T10:04:35.363Z,87.40
2019-03-03T10:07:23.348Z,87.40
2019-03-03T10:10:12.587Z,87.50
2019-03-03T10:12:49.775Z,87.80
2019-03-03T10:15:30.143Z,87.20
2019-03-03T10:18:04.413Z,86.80
2019-03-03T10:20:35.648Z,87.00
2019-03-03T10:23:07.046Z,87.00
2019-03-03T10:25:50.577Z,86.40
2019-03-03T10:28:30.578Z,87.00
2019-03-03T10:31:04.604Z,86.30
2019-03-03T10:33:53.815Z,86.40
2019-03-03T10:36:25.183Z,86.80
2019-03-03T10:38:57.958Z,86.00
2019-03-03T10:41:29.262Z,85.70
2019-03-03T10:44:16.822Z,85.60
2019-03-03T10:46:48.123Z,85.90
2019-03-03T10:49:28.758Z,86.60
2019-03-03T10:52:03.004Z,87.00
2019-03-03T10:54:49.583Z,86.50
2019-03-03T10:57:23.531Z,86.30
2019-03-03T11:00:07.011Z,85.90
2019-03-03T11:02:54.532Z,85.50
2019-03-03T11:05:42.376Z,85.30
2019-03-03T11:08:13.675Z,85.00
2019-03-03T11:10:57.737Z,85.10
2019-03-03T11:13:47.557Z,85.10
2019-03-03T11:16:35.244Z,84.70
2019-03-03T11:19:07.291Z,85.50
2019-03-03T11:21:54.407Z,85.00
2019-03-03T11:24:41.903Z,84.90
2019-03-03T11:27:21.954Z,84.90
2019-03-03T11:30:02.247Z,84.40
2019-03-03T11:32:49.731Z,84.20
2019-03-03T11:35:20.980Z,83.80
2019-03-03T11:38:07.124Z,83.10
2019-03-03T11:40:38.355Z,82.70
2019-03-03T11:43:09.620Z,83.20
2019-03-03T11:45:43.885Z,82.50
2019-03-03T11:48:21.094Z,82.30
2019-03-03T11:50:52.293Z,82.00
2019-03-03T11:53:26.267Z,81.30
2019-03-03T11:55:57.499Z,80.50
2019-03-03T11:58:31.509Z,81.00
2019-03-03T12:01:20.878Z,80.50
2019-03-03T12:03:58.152Z,80.40
2019-03-03T12:06:44.363Z,80.00
2019-03-03T12:09:19.487Z,80.20
2019-03-03T12:11:50.798Z,81.60
2019-03-03T12:14:25.313Z,81.00
2019-03-03T12:16:56.544Z,80.80
2019-03-03T12:19:30.905Z,80.40
2019-03-03T12:22:04.931Z,81.10
2019-03-03T12:24:48.216Z,80.20
2019-03-03T12:27:37.868Z,79.60
2019-03-03T12:30:11.487Z,79.80
2019-03-03T12:32:45.205Z,79.50
2019-03-03T12:35:25.389Z,79.70
2019-03-03T12:37:56.649Z,79.70
2019-03-03T12:40:33.435Z,80.20
2019-03-03T12:43:16.665Z,79.90
2019-03-03T12:45:56.924Z,79.00
2019-03-03T12:48:44.578Z,78.30
2019-03-03T12:51:15.828Z,78.90
2019-03-03T12:53:47.369Z,78.40
2019-03-03T12:56:18.630Z,78.50
2019-03-03T12:58:49.874Z,78.20
2019-03-03T13:01:30.344Z,78.30
2019-03-03T13:04:10.563Z,78.20
2019-03-03T13:06:50.408Z,77.70
2019-03-03T13:09:21.659Z,77.50
2019-03-03T13:11:55.656Z,77.70
2019-03-03T13:14:42.120Z,77.10
2019-03-03T13:17:29.530Z,77.20
2019-03-03T13:20:09.538Z,77.40
2019-03-03T13:22:57.143Z,76.60
2019-03-03T13:25:28.450Z,75.70
2019-03-03T13:28:05.590Z,75.50
2019-03-03T13:30:53.230Z,75.10
2019-03-03T13:33:30.696Z,74.70
2019-03-03T13:36:11.155Z,73.90
2019-03-03T13:38:48.103Z,73.70
2019-03-03T13:41:19.418Z,73.80
2019-03-03T13:43:49.084Z,74.50
2019-03-03T13:46:18.709Z,74.40
2019-03-03T13:48:48.331Z,74.20
2019-03-03T13:51:17.994Z,74.20
2019-03-03T13:53:47.819Z,74.00
2019-03-03T13:56:17.487Z,74.10
2019-03-03T13:58:47.155Z,73.20
2019-03-03T14:01:16.895Z,72.90
2019-03-03T14:03:46.508Z,73.30
2019-03-03T14:06:16.151Z,72.60
2019-03-03T14:08:45.835Z,72.90
2019-03-03T14:11:15.429Z,72.50
2019-03-03T14:13:45.212Z,71.80
2019-03-03T14:16:14.759Z,71.10
2019-03-03T14:18:45.563Z,70.40
2019-03-03T14:21:15.316Z,71.00
2019-03-03T14:23:45.237Z,70.50
2019-03-03T14:26:14.848Z,70.20
2019-03-03T14:28:44.593Z,69.40
2019-03-03T14:31:14.485Z,69.50
2019-03-03T14:33:44.160Z,70.00
2019-03-03T14:36:14.421Z,69.80
2019-03-03T14:38:44.265Z,69.90
2019-03-03T14:41:14.118Z,70.60
2019-03-03T14:43:44.103Z,70.00
2019-03-03T14:46:13.897Z,69.60
2019-03-03T14:48:45.787Z,70.10
2019-03-03T14:51:15.565Z,70.40
2019-03-03T14:53:45.372Z,69.80
2019-03-03T14:56:15.970Z,69.60
2019-03-03T14:58:45.617Z,69.30
2019-03-03T15:01:15.327Z,69.10
2019-03-03T15:03:45.148Z,69.60
2019-03-03T15:06:23.949Z,69.30
2019-03-03T15:08:46.308Z,69.70
2019-03-03T15:11:16.036Z,69.20
2019-03-03T15:13:46.173Z,68.50
2019-03-03T15:16:15.874Z,68.70
2019-03-03T15:18:49.030Z,68.50
2019-03-03T15:21:25.070Z,68.20
2019-03-03T15:23:51.561Z,68.70
2019-03-03T15:26:21.761Z,68.80
2019-03-03T15:28:51.632Z,68.50
2019-03-03T15:31:21.713Z,68.60
2019-03-03T15:33:52.166Z,68.90
2019-03-03T15:36:22.438Z,69.20
2019-03-03T15:38:52.608Z,69.90
2019-03-03T15:41:24.805Z,69.20
2019-03-03T15:43:57.480Z,69.60
2019-03-03T15:46:27.523Z,70.10
2019-03-03T15:48:59.388Z,70.50
2019-03-03T15:51:29.361Z,70.70
2019-03-03T15:53:59.208Z,70.40
2019-03-03T15:56:29.045Z,70.10
2019-03-03T15:58:59.529Z,70.30
2019-03-03T16:01:29.279Z,71.00
2019-03-03T16:03:59.016Z,71.20
2019-03-03T16:06:28.720Z,71.00
2019-03-03T16:08:58.399Z,71.30
2019-03-03T16:11:28.147Z,71.30
2019-03-03T16:13:58.011Z,71.50
2019-03-03T16:16:28.131Z,71.70
2019-03-03T16:18:57.857Z,71.30
2019-03-03T16:21:27.493Z,71.70
2019-03-03T16:23:57.413Z,72.00
2019-03-03T16:26:27.062Z,71.90
2019-03-03T16:28:56.843Z,72.00
2019-03-03T16:31:26.587Z,72.00
2019-03-03T16:33:56.866Z,72.30
2019-03-03T16:36:26.655Z,72.60
2019-03-03T16:38:56.570Z,72.10
2019-03-03T16:41:26.221Z,72.30
2019-03-03T16:43:55.899Z,72.40
2019-03-03T16:46:25.549Z,72.80
2019-03-03T16:48:55.315Z,72.60
2019-03-03T16:51:25.115Z,73.70
2019-03-03T16:53:55.451Z,72.50
2019-03-03T16:56:25.189Z,72.20
2019-03-03T16:58:55.314Z,72.00
2019-03-03T17:01:25.098Z,72.00
2019-03-03T17:03:55.312Z,72.40
2019-03-03T17:06:25.011Z,72.70
2019-03-03T17:08:54.647Z,72.50
2019-03-03T17:11:24.328Z,72.70
2019-03-03T17:13:55.648Z,72.70
2019-03-03T17:16:25.274Z,72.80
2019-03-03T17:18:54.895Z,72.40
2019-03-03T17:21:24.548Z,72.40
2019-03-03T17:23:59.945Z,72.20
2019-03-03T17:26:30.348Z,72.20
2019-03-03T17:29:00.030Z,72.30
2019-03-03T17:31:31.057Z,71.90
2019-03-03T17:34:00.799Z,71.80
2019-03-03T17:36:30.767Z,71.80
2019-03-03T17:39:00.426Z,72.50
2019-03-03T17:41:30.208Z,73.60
2019-03-03T17:43:59.804Z,74.00
2019-03-03T17:46:30.817Z,74.80
2019-03-03T17:49:00.367Z,74.60
2019-03-03T17:51:30.116Z,74.60
2019-03-03T17:53:59.891Z,75.00
2019-03-03T17:56:31.343Z,75.60
2019-03-03T17:59:02.568Z,75.80
2019-03-03T18:01:32.539Z,75.90
2019-03-03T18:04:02.241Z,76.20
2019-03-03T18:06:38.858Z,76.60
2019-03-03T18:09:06.313Z,76.10
2019-03-03T18:11:36.367Z,75.60
2019-03-03T18:14:07.384Z,75.20
2019-03-03T18:16:37.010Z,75.30
2019-03-03T18:19:07.596Z,75.80
2019-03-03T18:21:39.663Z,75.90
2019-03-03T18:24:09.323Z,76.60
2019-03-03T18:26:38.876Z,76.50
2019-03-03T18:29:08.513Z,76.50
2019-03-03T18:31:38.121Z,76.50
2019-03-03T18:34:08.407Z,76.60
2019-03-03T18:36:38.083Z,77.50
2019-03-03T18:39:08.525Z,77.80
2019-03-03T18:41:38.146Z,78.10
2019-03-03T18:44:07.809Z,78.20
2019-03-03T18:46:37.753Z,78.10
2019-03-03T18:49:07.625Z,78.00
2019-03-03T18:51:37.247Z,77.20
2019-03-03T18:54:06.855Z,77.20
2019-03-03T18:56:36.458Z,76.50
2019-03-03T18:59:07.822Z,77.10
2019-03-03T19:01:37.544Z,76.60
2019-03-03T19:04:07.264Z,76.10
2019-03-03T19:06:36.855Z,76.30
2019-03-03T19:09:10.254Z,76.00
2019-03-03T19:11:39.134Z,76.50
2019-03-03T19:14:09.597Z,76.30
2019-03-03T19:16:39.193Z,76.20
2019-03-03T19:19:09.058Z,76.50
2019-03-03T19:21:38.815Z,76.40
2019-03-03T19:24:10.255Z,76.30
2019-03-03T19:26:39.980Z,76.20
2019-03-03T19:29:12.629Z,76.30
2019-03-03T19:31:42.337Z,76.00
2019-03-03T19:34:11.895Z,76.40
2019-03-03T19:36:41.492Z,76.30
2019-03-03T19:39:11.492Z,76.60
2019-03-03T19:41:41.177Z,76.30
2019-03-03T19:44:11.358Z,76.80
2019-03-03T19:46:41.323Z,76.70
2019-03-03T19:49:11.067Z,76.80
2019-03-03T19:51:41.002Z,76.80
2019-03-03T19:54:10.784Z,77.10
2019-03-03T19:56:41.891Z,77.20
2019-03-03T19:59:11.985Z,76.90
2019-03-03T20:01:41.617Z,76.70
2019-03-03T20:04:11.299Z,76.40
2019-03-03T20:06:40.894Z,76.50
2019-03-03T20:09:11.214Z,76.50
2019-03-03T20:11:40.872Z,76.70
2019-03-03T20:14:11.037Z,77.20
2019-03-03T20:16:40.673Z,77.20
2019-03-03T20:19:10.314Z,77.30
2019-03-03T20:21:39.935Z,77.50
2019-03-03T20:24:09.551Z,78.10
2019-03-03T20:26:39.160Z,77.70
2019-03-03T20:29:08.967Z,77.60
2019-03-03T20:31:38.574Z,77.70
2019-03-03T20:34:08.175Z,77.90
2019-03-03T20:36:37.783Z,77.70
2019-03-03T20:39:08.441Z,77.30
2019-03-03T20:41:38.055Z,77.40
2019-03-03T20:44:07.813Z,77.50
2019-03-03T20:46:37.699Z,77.30
2019-03-03T20:49:07.545Z,77.00
2019-03-03T20:51:37.123Z,77.00
2019-03-03T20:54:06.761Z,77.30
2019-03-03T20:56:36.429Z,77.60
2019-03-03T20:59:06.136Z,77.40
2019-03-03T21:01:36.224Z,76.90
2019-03-03T21:04:05.850Z,76.70
2019-03-03T21:06:35.607Z,76.70
2019-03-03T21:09:06.723Z,76.50
2019-03-03T21:11:36.436Z,76.30
2019-03-03T21:14:06.124Z,76.20
2019-03-03T21:16:35.737Z,76.20
2019-03-03T21:19:07.338Z,76.30
2019-03-03T21:21:36.886Z,76.20
2019-03-03T21:24:06.588Z,76.30
2019-03-03T21:26:36.203Z,76.40
2019-03-03T21:29:05.999Z,76.20
2019-03-03T21:31:35.833Z,76.10
2019-03-03T21:34:05.511Z,75.90
2019-03-03T21:36:35.175Z,75.40
2019-03-03T21:39:07.253Z,75.00
2019-03-03T21:41:36.943Z,74.70
2019-03-03T21:44:06.565Z,74.60
2019-03-03T21:46:36.187Z,74.60
2019-03-03T21:49:05.888Z,73.80
2019-03-03T21:51:35.541Z,73.90
2019-03-03T21:54:05.346Z,73.20
2019-03-03T21:56:35.056Z,73.30
2019-03-03T21:59:04.810Z,73.10
2019-03-03T22:01:34.497Z,73.00
2019-03-03T22:04:04.186Z,72.90
2019-03-03T22:06:33.848Z,72.60
2019-03-03T22:09:04.903Z,72.30
2019-03-03T22:11:34.548Z,73.10
2019-03-03T22:14:04.315Z,72.20
2019-03-03T22:16:33.935Z,71.70
2019-03-03T22:19:03.536Z,72.30
2019-03-03T22:21:33.211Z,72.40
2019-03-03T22:24:02.890Z,72.20
2019-03-03T22:26:32.586Z,72.00
2019-03-03T22:29:02.247Z,71.70
2019-03-03T22:31:31.880Z,71.50
2019-03-03T22:34:01.556Z,71.60
2019-03-03T22:36:31.278Z,71.80
2019-03-03T22:39:00.932Z,71.30
2019-03-03T22:41:30.503Z,70.90
2019-03-03T22:44:00.212Z,70.80
2019-03-03T22:46:29.843Z,70.50
2019-03-03T22:48:59.419Z,70.30
2019-03-03T22:51:29.178Z,70.00
2019-03-03T22:53:58.852Z,70.00
2019-03-03T22:56:28.506Z,70.30
2019-03-03T22:58:58.191Z,70.40
2019-03-03T23:01:29.686Z,70.30
2019-03-03T23:04:21.903Z,70.00
2019-03-03T23:06:54.544Z,70.10
2019-03-03T23:09:30.152Z,70.00
2019-03-03T23:12:02.861Z,70.70
2019-03-03T23:14:35.495Z,70.30
2019-03-03T23:17:11.136Z,70.10
2019-03-03T23:20:04.543Z,70.00
2019-03-03T23:22:52.319Z,69.60
2019-03-03T23:25:49.962Z,69.80
2019-03-03T23:28:20.474Z,69.90
2019-03-03T23:30:50.597Z,69.50
2019-03-03T23:33:20.267Z,69.80
2019-03-03T23:35:49.844Z,69.60
2019-03-03T23:38:19.467Z,69.70
2019-03-03T23:40:49.051Z,69.60
2019-03-03T23:43:19.186Z,69.90
2019-03-03T23:45:48.780Z,69.60
2019-03-03T23:48:18.379Z,69.30
2019-03-03T23:50:47.979Z,69.30
2019-03-03T23:53:17.563Z,69.50
2019-03-03T23:55:47.142Z,69.20
2019-03-03T23:58:16.805Z,69.60
